sensor_id;sensor_type;location;lat;lon;timestamp;temperature;humidity
74657;DHT22;63185;45.642;13.764;2023-12-14T00:02:05;11.60;77.70
74657;DHT22;63185;45.642;13.764;2023-12-14T00:04:30;11.60;76.00
74657;DHT22;63185;45.642;13.764;2023-12-14T00:06:56;11.60;76.30
74657;DHT22;63185;45.642;13.764;2023-12-14T00:09:21;11.60;75.80
74657;DHT22;63185;45.642;13.764;2023-12-14T00:11:47;11.60;74.70
74657;DHT22;63185;45.642;13.764;2023-12-14T00:14:13;11.70;74.50
74657;DHT22;63185;45.642;13.764;2023-12-14T00:16:38;11.60;71.80
74657;DHT22;63185;45.642;13.764;2023-12-14T00:19:04;11.70;72.40
74657;DHT22;63185;45.642;13.764;2023-12-14T00:21:30;11.70;73.30
74657;DHT22;63185;45.642;13.764;2023-12-14T00:23:56;11.80;73.10
74657;DHT22;63185;45.642;13.764;2023-12-14T00:26:21;11.80;74.50
74657;DHT22;63185;45.642;13.764;2023-12-14T00:28:47;11.80;75.10
74657;DHT22;63185;45.642;13.764;2023-12-14T00:31:13;11.70;75.20
74657;DHT22;63185;45.642;13.764;2023-12-14T00:33:38;11.70;76.10
74657;DHT22;63185;45.642;13.764;2023-12-14T00:36:04;11.60;75.80
74657;DHT22;63185;45.642;13.764;2023-12-14T00:38:30;11.60;76.10
74657;DHT22;63185;45.642;13.764;2023-12-14T00:40:56;11.60;74.80
74657;DHT22;63185;45.642;13.764;2023-12-14T00:43:21;11.60;75.10
74657;DHT22;63185;45.642;13.764;2023-12-14T00:45:47;11.60;73.50
74657;DHT22;63185;45.642;13.764;2023-12-14T00:48:13;11.60;73.90
74657;DHT22;63185;45.642;13.764;2023-12-14T00:50:38;11.60;74.90
74657;DHT22;63185;45.642;13.764;2023-12-14T00:53:04;11.70;74.30
74657;DHT22;63185;45.642;13.764;2023-12-14T00:55:30;11.70;74.60
74657;DHT22;63185;45.642;13.764;2023-12-14T00:57:55;11.70;75.00
74657;DHT22;63185;45.642;13.764;2023-12-14T01:00:21;11.70;75.50
74657;DHT22;63185;45.642;13.764;2023-12-14T01:02:47;11.60;75.20
74657;DHT22;63185;45.642;13.764;2023-12-14T01:05:12;11.70;74.50
74657;DHT22;63185;45.642;13.764;2023-12-14T01:07:38;11.70;73.80
74657;DHT22;63185;45.642;13.764;2023-12-14T01:10:04;11.70;74.10
74657;DHT22;63185;45.642;13.764;2023-12-14T01:12:30;11.80;72.50
74657;DHT22;63185;45.642;13.764;2023-12-14T01:14:55;11.80;73.10
74657;DHT22;63185;45.642;13.764;2023-12-14T01:17:21;11.70;72.70
74657;DHT22;63185;45.642;13.764;2023-12-14T01:19:47;11.80;72.90
74657;DHT22;63185;45.642;13.764;2023-12-14T01:22:12;11.70;73.10
74657;DHT22;63185;45.642;13.764;2023-12-14T01:24:38;11.70;72.80
74657;DHT22;63185;45.642;13.764;2023-12-14T01:27:04;11.80;73.30
74657;DHT22;63185;45.642;13.764;2023-12-14T01:29:29;11.70;73.80
74657;DHT22;63185;45.642;13.764;2023-12-14T01:31:55;11.70;73.80
74657;DHT22;63185;45.642;13.764;2023-12-14T01:34:21;11.80;72.70
74657;DHT22;63185;45.642;13.764;2023-12-14T01:36:46;11.80;71.20
74657;DHT22;63185;45.642;13.764;2023-12-14T01:39:12;11.80;71.60
74657;DHT22;63185;45.642;13.764;2023-12-14T01:41:38;11.70;72.50
74657;DHT22;63185;45.642;13.764;2023-12-14T01:44:03;11.80;72.10
74657;DHT22;63185;45.642;13.764;2023-12-14T01:46:29;11.80;72.10
74657;DHT22;63185;45.642;13.764;2023-12-14T01:48:55;11.80;71.40
74657;DHT22;63185;45.642;13.764;2023-12-14T01:51:21;11.80;71.40
74657;DHT22;63185;45.642;13.764;2023-12-14T01:53:46;11.80;70.80
74657;DHT22;63185;45.642;13.764;2023-12-14T01:56:12;11.70;71.30
74657;DHT22;63185;45.642;13.764;2023-12-14T01:58:38;11.80;71.50
74657;DHT22;63185;45.642;13.764;2023-12-14T02:03:57;11.70;72.40
74657;DHT22;63185;45.642;13.764;2023-12-14T02:06:23;11.70;71.00
74657;DHT22;63185;45.642;13.764;2023-12-14T02:08:49;11.60;70.10
74657;DHT22;63185;45.642;13.764;2023-12-14T02:11:14;11.60;69.80
74657;DHT22;63185;45.642;13.764;2023-12-14T02:13:40;11.60;69.80
74657;DHT22;63185;45.642;13.764;2023-12-14T02:16:06;11.60;69.80
74657;DHT22;63185;45.642;13.764;2023-12-14T02:18:32;11.70;68.50
74657;DHT22;63185;45.642;13.764;2023-12-14T02:20:57;11.70;69.50
74657;DHT22;63185;45.642;13.764;2023-12-14T02:23:23;11.80;69.60
74657;DHT22;63185;45.642;13.764;2023-12-14T02:25:49;11.80;69.40
74657;DHT22;63185;45.642;13.764;2023-12-14T02:28:14;11.70;69.20
74657;DHT22;63185;45.642;13.764;2023-12-14T02:30:40;11.70;69.20
74657;DHT22;63185;45.642;13.764;2023-12-14T02:33:05;11.70;69.30
74657;DHT22;63185;45.642;13.764;2023-12-14T02:35:31;11.70;69.20
74657;DHT22;63185;45.642;13.764;2023-12-14T02:37:57;11.70;70.20
74657;DHT22;63185;45.642;13.764;2023-12-14T02:40:22;11.60;70.80
74657;DHT22;63185;45.642;13.764;2023-12-14T02:42:48;11.60;72.50
74657;DHT22;63185;45.642;13.764;2023-12-14T02:45:14;11.60;72.40
74657;DHT22;63185;45.642;13.764;2023-12-14T02:47:39;11.60;72.40
74657;DHT22;63185;45.642;13.764;2023-12-14T02:50:05;11.50;72.20
74657;DHT22;63185;45.642;13.764;2023-12-14T02:52:31;11.50;71.50
74657;DHT22;63185;45.642;13.764;2023-12-14T02:54:57;11.50;72.00
74657;DHT22;63185;45.642;13.764;2023-12-14T02:57:22;11.50;72.10
74657;DHT22;63185;45.642;13.764;2023-12-14T02:59:48;11.60;71.60
74657;DHT22;63185;45.642;13.764;2023-12-14T03:02:14;11.50;71.90
74657;DHT22;63185;45.642;13.764;2023-12-14T03:04:39;11.30;71.50
74657;DHT22;63185;45.642;13.764;2023-12-14T03:07:06;11.40;72.00
74657;DHT22;63185;45.642;13.764;2023-12-14T03:09:32;11.30;72.70
74657;DHT22;63185;45.642;13.764;2023-12-14T03:11:57;11.30;72.00
74657;DHT22;63185;45.642;13.764;2023-12-14T03:14:24;11.30;71.90
74657;DHT22;63185;45.642;13.764;2023-12-14T03:16:50;11.40;70.70
74657;DHT22;63185;45.642;13.764;2023-12-14T03:19:16;11.40;69.70
74657;DHT22;63185;45.642;13.764;2023-12-14T03:21:42;11.40;69.20
74657;DHT22;63185;45.642;13.764;2023-12-14T03:24:08;11.40;69.50
74657;DHT22;63185;45.642;13.764;2023-12-14T03:26:37;11.40;69.40
74657;DHT22;63185;45.642;13.764;2023-12-14T03:29:02;11.40;70.20
74657;DHT22;63185;45.642;13.764;2023-12-14T03:31:28;11.30;71.00
74657;DHT22;63185;45.642;13.764;2023-12-14T03:33:54;11.20;71.20
74657;DHT22;63185;45.642;13.764;2023-12-14T03:36:19;11.20;70.70
74657;DHT22;63185;45.642;13.764;2023-12-14T03:38:45;11.30;70.80
74657;DHT22;63185;45.642;13.764;2023-12-14T03:41:11;11.20;70.30
74657;DHT22;63185;45.642;13.764;2023-12-14T03:43:36;11.20;70.80
74657;DHT22;63185;45.642;13.764;2023-12-14T03:46:02;11.30;70.20
74657;DHT22;63185;45.642;13.764;2023-12-14T03:48:28;11.20;70.20
74657;DHT22;63185;45.642;13.764;2023-12-14T03:50:53;11.30;69.70
74657;DHT22;63185;45.642;13.764;2023-12-14T03:53:19;11.40;69.20
74657;DHT22;63185;45.642;13.764;2023-12-14T03:55:45;11.40;70.00
74657;DHT22;63185;45.642;13.764;2023-12-14T03:58:11;11.30;69.90
74657;DHT22;63185;45.642;13.764;2023-12-14T04:00:37;11.30;70.80
74657;DHT22;63185;45.642;13.764;2023-12-14T04:03:02;11.20;70.50
74657;DHT22;63185;45.642;13.764;2023-12-14T04:05:28;11.20;70.70
74657;DHT22;63185;45.642;13.764;2023-12-14T04:07:54;11.20;71.50
74657;DHT22;63185;45.642;13.764;2023-12-14T04:10:19;11.20;70.60
74657;DHT22;63185;45.642;13.764;2023-12-14T04:12:46;11.20;70.70
74657;DHT22;63185;45.642;13.764;2023-12-14T04:15:11;11.30;69.70
74657;DHT22;63185;45.642;13.764;2023-12-14T04:17:37;11.30;68.70
74657;DHT22;63185;45.642;13.764;2023-12-14T04:20:03;11.50;67.50
74657;DHT22;63185;45.642;13.764;2023-12-14T04:22:31;11.60;66.40
74657;DHT22;63185;45.642;13.764;2023-12-14T04:24:57;11.70;66.10
74657;DHT22;63185;45.642;13.764;2023-12-14T04:27:23;11.80;66.50
74657;DHT22;63185;45.642;13.764;2023-12-14T04:29:52;11.70;67.10
74657;DHT22;63185;45.642;13.764;2023-12-14T04:32:18;11.70;67.20
74657;DHT22;63185;45.642;13.764;2023-12-14T04:34:43;11.70;66.70
74657;DHT22;63185;45.642;13.764;2023-12-14T04:37:09;11.60;67.00
74657;DHT22;63185;45.642;13.764;2023-12-14T04:39:35;11.60;67.90
74657;DHT22;63185;45.642;13.764;2023-12-14T04:42:01;11.60;66.60
74657;DHT22;63185;45.642;13.764;2023-12-14T04:44:26;11.50;66.80
74657;DHT22;63185;45.642;13.764;2023-12-14T04:46:52;11.60;67.60
74657;DHT22;63185;45.642;13.764;2023-12-14T04:49:18;11.50;68.00
74657;DHT22;63185;45.642;13.764;2023-12-14T04:51:44;11.50;68.80
74657;DHT22;63185;45.642;13.764;2023-12-14T04:54:10;11.40;68.80
74657;DHT22;63185;45.642;13.764;2023-12-14T04:56:36;11.30;69.40
74657;DHT22;63185;45.642;13.764;2023-12-14T04:59:01;11.20;70.30
74657;DHT22;63185;45.642;13.764;2023-12-14T05:01:28;11.20;69.90
74657;DHT22;63185;45.642;13.764;2023-12-14T05:03:54;11.20;69.50
74657;DHT22;63185;45.642;13.764;2023-12-14T05:06:20;11.20;69.70
74657;DHT22;63185;45.642;13.764;2023-12-14T05:08:46;11.10;69.00
74657;DHT22;63185;45.642;13.764;2023-12-14T05:11:13;11.10;68.60
74657;DHT22;63185;45.642;13.764;2023-12-14T05:13:39;11.10;68.80
74657;DHT22;63185;45.642;13.764;2023-12-14T05:16:05;11.10;69.50
74657;DHT22;63185;45.642;13.764;2023-12-14T05:18:31;11.00;69.70
74657;DHT22;63185;45.642;13.764;2023-12-14T05:20:56;11.00;69.70
74657;DHT22;63185;45.642;13.764;2023-12-14T05:23:22;11.00;69.40
74657;DHT22;63185;45.642;13.764;2023-12-14T05:25:49;11.00;69.70
74657;DHT22;63185;45.642;13.764;2023-12-14T05:28:15;11.00;69.90
74657;DHT22;63185;45.642;13.764;2023-12-14T05:30:41;10.90;69.50
74657;DHT22;63185;45.642;13.764;2023-12-14T05:33:07;10.90;69.80
74657;DHT22;63185;45.642;13.764;2023-12-14T05:35:32;10.80;70.20
74657;DHT22;63185;45.642;13.764;2023-12-14T05:37:58;10.80;70.80
74657;DHT22;63185;45.642;13.764;2023-12-14T05:40:24;10.70;69.70
74657;DHT22;63185;45.642;13.764;2023-12-14T05:42:50;10.80;70.00
74657;DHT22;63185;45.642;13.764;2023-12-14T05:45:15;10.80;70.40
74657;DHT22;63185;45.642;13.764;2023-12-14T05:47:44;10.80;70.40
74657;DHT22;63185;45.642;13.764;2023-12-14T05:50:09;10.90;70.30
74657;DHT22;63185;45.642;13.764;2023-12-14T05:52:38;10.80;70.60
74657;DHT22;63185;45.642;13.764;2023-12-14T05:55:08;10.80;70.20
74657;DHT22;63185;45.642;13.764;2023-12-14T05:57:35;10.80;70.00
74657;DHT22;63185;45.642;13.764;2023-12-14T06:00:01;10.80;69.70
74657;DHT22;63185;45.642;13.764;2023-12-14T06:02:27;10.80;69.80
74657;DHT22;63185;45.642;13.764;2023-12-14T06:04:52;10.80;68.90
74657;DHT22;63185;45.642;13.764;2023-12-14T06:07:18;10.90;69.30
74657;DHT22;63185;45.642;13.764;2023-12-14T06:09:44;10.80;70.20
74657;DHT22;63185;45.642;13.764;2023-12-14T06:12:09;10.70;69.90
74657;DHT22;63185;45.642;13.764;2023-12-14T06:14:35;10.70;70.30
74657;DHT22;63185;45.642;13.764;2023-12-14T06:17:01;10.70;70.00
74657;DHT22;63185;45.642;13.764;2023-12-14T06:19:27;10.70;70.50
74657;DHT22;63185;45.642;13.764;2023-12-14T06:21:52;10.70;70.30
74657;DHT22;63185;45.642;13.764;2023-12-14T06:24:18;10.70;70.50
74657;DHT22;63185;45.642;13.764;2023-12-14T06:26:44;10.70;69.80
74657;DHT22;63185;45.642;13.764;2023-12-14T06:29:11;10.70;69.80
74657;DHT22;63185;45.642;13.764;2023-12-14T06:31:38;10.70;68.80
74657;DHT22;63185;45.642;13.764;2023-12-14T06:34:03;10.90;68.50
74657;DHT22;63185;45.642;13.764;2023-12-14T06:36:33;10.90;68.70
74657;DHT22;63185;45.642;13.764;2023-12-14T06:39:00;10.90;68.60
74657;DHT22;63185;45.642;13.764;2023-12-14T06:41:27;10.90;69.20
74657;DHT22;63185;45.642;13.764;2023-12-14T06:43:54;10.90;70.00
74657;DHT22;63185;45.642;13.764;2023-12-14T06:46:20;10.80;69.80
74657;DHT22;63185;45.642;13.764;2023-12-14T06:48:46;10.80;68.70
74657;DHT22;63185;45.642;13.764;2023-12-14T06:51:13;10.90;68.70
74657;DHT22;63185;45.642;13.764;2023-12-14T06:53:42;11.00;68.90
74657;DHT22;63185;45.642;13.764;2023-12-14T06:56:09;11.00;69.20
74657;DHT22;63185;45.642;13.764;2023-12-14T06:58:37;11.00;70.20
74657;DHT22;63185;45.642;13.764;2023-12-14T07:01:03;10.90;70.10
74657;DHT22;63185;45.642;13.764;2023-12-14T07:03:28;10.90;70.40
74657;DHT22;63185;45.642;13.764;2023-12-14T07:05:54;10.90;70.50
74657;DHT22;63185;45.642;13.764;2023-12-14T07:08:19;10.90;70.50
74657;DHT22;63185;45.642;13.764;2023-12-14T07:10:45;10.90;70.50
74657;DHT22;63185;45.642;13.764;2023-12-14T07:13:11;11.00;70.60
74657;DHT22;63185;45.642;13.764;2023-12-14T07:15:37;11.00;71.10
74657;DHT22;63185;45.642;13.764;2023-12-14T07:18:02;11.00;71.20
74657;DHT22;63185;45.642;13.764;2023-12-14T07:20:28;11.00;71.20
74657;DHT22;63185;45.642;13.764;2023-12-14T07:22:54;11.10;71.20
74657;DHT22;63185;45.642;13.764;2023-12-14T07:25:19;11.10;70.70
74657;DHT22;63185;45.642;13.764;2023-12-14T07:27:45;11.10;70.10
74657;DHT22;63185;45.642;13.764;2023-12-14T07:30:12;11.10;70.50
74657;DHT22;63185;45.642;13.764;2023-12-14T07:32:38;11.20;70.80
74657;DHT22;63185;45.642;13.764;2023-12-14T07:35:05;11.30;71.20
74657;DHT22;63185;45.642;13.764;2023-12-14T07:37:30;11.30;71.50
74657;DHT22;63185;45.642;13.764;2023-12-14T07:39:56;11.30;71.90
74657;DHT22;63185;45.642;13.764;2023-12-14T07:42:23;11.30;72.20
74657;DHT22;63185;45.642;13.764;2023-12-14T07:44:49;11.30;72.10
74657;DHT22;63185;45.642;13.764;2023-12-14T07:47:15;11.40;72.20
74657;DHT22;63185;45.642;13.764;2023-12-14T07:49:41;11.40;72.90
74657;DHT22;63185;45.642;13.764;2023-12-14T07:52:06;11.50;72.80
74657;DHT22;63185;45.642;13.764;2023-12-14T07:54:32;11.50;72.80
74657;DHT22;63185;45.642;13.764;2023-12-14T07:56:58;11.40;72.70
74657;DHT22;63185;45.642;13.764;2023-12-14T07:59:23;11.50;72.10
74657;DHT22;63185;45.642;13.764;2023-12-14T08:01:49;11.60;71.50
74657;DHT22;63185;45.642;13.764;2023-12-14T08:04:15;11.60;70.90
74657;DHT22;63185;45.642;13.764;2023-12-14T08:06:41;11.70;70.00
74657;DHT22;63185;45.642;13.764;2023-12-14T08:09:07;11.90;68.30
74657;DHT22;63185;45.642;13.764;2023-12-14T08:11:33;11.90;67.40
74657;DHT22;63185;45.642;13.764;2023-12-14T08:13:59;11.90;67.70
74657;DHT22;63185;45.642;13.764;2023-12-14T08:16:24;11.90;66.90
74657;DHT22;63185;45.642;13.764;2023-12-14T08:18:50;11.90;66.80
74657;DHT22;63185;45.642;13.764;2023-12-14T08:21:17;12.10;67.00
74657;DHT22;63185;45.642;13.764;2023-12-14T08:23:43;12.20;66.70
74657;DHT22;63185;45.642;13.764;2023-12-14T08:26:09;12.30;66.20
74657;DHT22;63185;45.642;13.764;2023-12-14T08:28:37;12.50;65.20
74657;DHT22;63185;45.642;13.764;2023-12-14T08:31:03;12.60;63.10
74657;DHT22;63185;45.642;13.764;2023-12-14T08:33:30;12.60;65.10
74657;DHT22;63185;45.642;13.764;2023-12-14T08:35:56;12.60;64.90
74657;DHT22;63185;45.642;13.764;2023-12-14T08:38:22;12.80;64.80
74657;DHT22;63185;45.642;13.764;2023-12-14T08:40:48;12.90;64.40
74657;DHT22;63185;45.642;13.764;2023-12-14T08:43:13;12.80;62.60
74657;DHT22;63185;45.642;13.764;2023-12-14T08:45:39;12.90;62.10
74657;DHT22;63185;45.642;13.764;2023-12-14T08:48:05;12.90;61.60
74657;DHT22;63185;45.642;13.764;2023-12-14T08:50:31;13.10;61.80
74657;DHT22;63185;45.642;13.764;2023-12-14T08:52:57;13.10;61.50
74657;DHT22;63185;45.642;13.764;2023-12-14T08:55:26;13.20;60.90
74657;DHT22;63185;45.642;13.764;2023-12-14T08:57:52;13.30;60.70
74657;DHT22;63185;45.642;13.764;2023-12-14T09:00:18;13.30;60.00
74657;DHT22;63185;45.642;13.764;2023-12-14T09:02:44;13.30;62.20
74657;DHT22;63185;45.642;13.764;2023-12-14T09:05:14;13.30;61.80
74657;DHT22;63185;45.642;13.764;2023-12-14T09:07:41;13.30;62.70
74657;DHT22;63185;45.642;13.764;2023-12-14T09:10:07;13.30;62.20
74657;DHT22;63185;45.642;13.764;2023-12-14T09:12:33;13.50;61.60
74657;DHT22;63185;45.642;13.764;2023-12-14T09:15:00;13.60;61.60
74657;DHT22;63185;45.642;13.764;2023-12-14T09:17:26;13.60;62.10
74657;DHT22;63185;45.642;13.764;2023-12-14T09:20:00;13.60;62.20
74657;DHT22;63185;45.642;13.764;2023-12-14T09:22:26;13.70;62.10
74657;DHT22;63185;45.642;13.764;2023-12-14T09:25:31;13.70;62.40
74657;DHT22;63185;45.642;13.764;2023-12-14T09:27:58;13.60;62.20
74657;DHT22;63185;45.642;13.764;2023-12-14T09:30:24;13.60;62.90
74657;DHT22;63185;45.642;13.764;2023-12-14T09:32:49;13.60;63.10
74657;DHT22;63185;45.642;13.764;2023-12-14T09:35:15;13.60;63.40
74657;DHT22;63185;45.642;13.764;2023-12-14T09:37:41;13.50;63.80
74657;DHT22;63185;45.642;13.764;2023-12-14T09:40:07;13.50;64.30
74657;DHT22;63185;45.642;13.764;2023-12-14T09:42:38;13.40;65.20
74657;DHT22;63185;45.642;13.764;2023-12-14T09:45:07;13.40;66.90
74657;DHT22;63185;45.642;13.764;2023-12-14T09:47:32;13.30;68.30
74657;DHT22;63185;45.642;13.764;2023-12-14T09:49:59;13.30;68.80
74657;DHT22;63185;45.642;13.764;2023-12-14T09:52:26;13.30;68.30
74657;DHT22;63185;45.642;13.764;2023-12-14T09:54:52;13.50;68.20
74657;DHT22;63185;45.642;13.764;2023-12-14T09:57:21;13.60;68.40
74657;DHT22;63185;45.642;13.764;2023-12-14T09:59:55;13.50;66.90
74657;DHT22;63185;45.642;13.764;2023-12-14T10:02:27;13.60;66.30
74657;DHT22;63185;45.642;13.764;2023-12-14T10:04:53;13.60;65.50
74657;DHT22;63185;45.642;13.764;2023-12-14T10:07:21;13.60;64.90
74657;DHT22;63185;45.642;13.764;2023-12-14T10:09:47;13.60;64.70
74657;DHT22;63185;45.642;13.764;2023-12-14T10:12:13;13.70;64.10
74657;DHT22;63185;45.642;13.764;2023-12-14T10:14:38;13.80;64.60
74657;DHT22;63185;45.642;13.764;2023-12-14T10:17:17;13.80;65.20
74657;DHT22;63185;45.642;13.764;2023-12-14T10:19:44;13.80;66.70
74657;DHT22;63185;45.642;13.764;2023-12-14T10:22:11;13.80;66.30
74657;DHT22;63185;45.642;13.764;2023-12-14T10:24:36;13.90;65.40
74657;DHT22;63185;45.642;13.764;2023-12-14T10:27:06;13.90;65.90
74657;DHT22;63185;45.642;13.764;2023-12-14T10:29:35;13.80;66.50
74657;DHT22;63185;45.642;13.764;2023-12-14T10:32:05;13.90;66.10
74657;DHT22;63185;45.642;13.764;2023-12-14T10:34:33;13.80;65.90
74657;DHT22;63185;45.642;13.764;2023-12-14T10:36:59;13.90;66.50
74657;DHT22;63185;45.642;13.764;2023-12-14T10:39:26;14.00;65.70
74657;DHT22;63185;45.642;13.764;2023-12-14T10:41:52;14.00;65.30
74657;DHT22;63185;45.642;13.764;2023-12-14T10:44:26;14.10;65.20
74657;DHT22;63185;45.642;13.764;2023-12-14T10:46:55;13.90;65.50
74657;DHT22;63185;45.642;13.764;2023-12-14T10:49:25;13.90;66.40
74657;DHT22;63185;45.642;13.764;2023-12-14T10:51:55;14.10;66.60
74657;DHT22;63185;45.642;13.764;2023-12-14T10:54:24;14.10;64.70
74657;DHT22;63185;45.642;13.764;2023-12-14T10:56:56;14.10;65.60
74657;DHT22;63185;45.642;13.764;2023-12-14T10:59:24;13.90;67.30
74657;DHT22;63185;45.642;13.764;2023-12-14T11:01:53;14.00;69.00
74657;DHT22;63185;45.642;13.764;2023-12-14T11:04:21;14.00;70.40
74657;DHT22;63185;45.642;13.764;2023-12-14T11:06:46;14.00;70.90
74657;DHT22;63185;45.642;13.764;2023-12-14T11:09:17;14.10;71.10
74657;DHT22;63185;45.642;13.764;2023-12-14T11:14:19;13.80;72.00
74657;DHT22;63185;45.642;13.764;2023-12-14T11:16:45;13.60;71.60
74657;DHT22;63185;45.642;13.764;2023-12-14T11:24:34;13.70;71.10
74657;DHT22;63185;45.642;13.764;2023-12-14T11:27:04;13.80;71.20
74657;DHT22;63185;45.642;13.764;2023-12-14T11:29:31;13.70;70.40
74657;DHT22;63185;45.642;13.764;2023-12-14T11:31:57;13.60;70.40
74657;DHT22;63185;45.642;13.764;2023-12-14T11:34:27;13.50;70.70
74657;DHT22;63185;45.642;13.764;2023-12-14T11:36:54;13.60;69.70
74657;DHT22;63185;45.642;13.764;2023-12-14T11:39:20;13.70;70.40
74657;DHT22;63185;45.642;13.764;2023-12-14T11:42:05;13.90;70.20
74657;DHT22;63185;45.642;13.764;2023-12-14T11:44:37;13.90;70.00
74657;DHT22;63185;45.642;13.764;2023-12-14T11:47:02;14.00;69.20
74657;DHT22;63185;45.642;13.764;2023-12-14T11:49:29;13.90;69.40
74657;DHT22;63185;45.642;13.764;2023-12-14T11:51:55;13.80;69.50
74657;DHT22;63185;45.642;13.764;2023-12-14T11:54:21;14.00;69.80
74657;DHT22;63185;45.642;13.764;2023-12-14T11:56:48;14.10;69.40
74657;DHT22;63185;45.642;13.764;2023-12-14T11:59:17;14.20;68.00
74657;DHT22;63185;45.642;13.764;2023-12-14T12:02:00;14.10;69.20
74657;DHT22;63185;45.642;13.764;2023-12-14T12:04:27;14.00;69.00
74657;DHT22;63185;45.642;13.764;2023-12-14T12:07:05;14.10;69.70
74657;DHT22;63185;45.642;13.764;2023-12-14T12:09:38;14.00;69.20
74657;DHT22;63185;45.642;13.764;2023-12-14T12:12:07;14.10;69.20
74657;DHT22;63185;45.642;13.764;2023-12-14T12:14:33;14.00;68.90
74657;DHT22;63185;45.642;13.764;2023-12-14T12:16:59;14.10;68.60
74657;DHT22;63185;45.642;13.764;2023-12-14T12:19:24;14.10;69.10
74657;DHT22;63185;45.642;13.764;2023-12-14T12:21:50;14.10;69.80
74657;DHT22;63185;45.642;13.764;2023-12-14T12:24:15;14.10;69.60
74657;DHT22;63185;45.642;13.764;2023-12-14T12:26:41;14.10;69.60
74657;DHT22;63185;45.642;13.764;2023-12-14T12:29:07;14.20;69.60
74657;DHT22;63185;45.642;13.764;2023-12-14T12:31:32;14.10;69.90
74657;DHT22;63185;45.642;13.764;2023-12-14T12:33:59;14.10;70.00
74657;DHT22;63185;45.642;13.764;2023-12-14T12:36:25;14.10;70.10
74657;DHT22;63185;45.642;13.764;2023-12-14T12:38:51;14.00;70.00
74657;DHT22;63185;45.642;13.764;2023-12-14T12:41:16;13.90;70.40
74657;DHT22;63185;45.642;13.764;2023-12-14T12:43:43;14.00;70.60
74657;DHT22;63185;45.642;13.764;2023-12-14T12:46:09;14.00;70.50
74657;DHT22;63185;45.642;13.764;2023-12-14T12:48:36;14.20;70.40
74657;DHT22;63185;45.642;13.764;2023-12-14T12:51:01;14.20;70.20
74657;DHT22;63185;45.642;13.764;2023-12-14T12:53:27;14.30;70.50
74657;DHT22;63185;45.642;13.764;2023-12-14T12:55:53;14.20;70.10
74657;DHT22;63185;45.642;13.764;2023-12-14T12:58:19;14.20;70.30
74657;DHT22;63185;45.642;13.764;2023-12-14T13:00:45;14.30;70.10
74657;DHT22;63185;45.642;13.764;2023-12-14T13:03:10;14.50;69.50
74657;DHT22;63185;45.642;13.764;2023-12-14T13:05:36;14.50;69.80
74657;DHT22;63185;45.642;13.764;2023-12-14T13:08:02;14.50;69.50
74657;DHT22;63185;45.642;13.764;2023-12-14T13:10:28;14.60;69.70
74657;DHT22;63185;45.642;13.764;2023-12-14T13:12:53;14.60;69.80
74657;DHT22;63185;45.642;13.764;2023-12-14T13:15:19;14.60;70.10
74657;DHT22;63185;45.642;13.764;2023-12-14T13:17:45;14.50;70.20
74657;DHT22;63185;45.642;13.764;2023-12-14T13:20:11;14.30;69.70
74657;DHT22;63185;45.642;13.764;2023-12-14T13:22:37;14.20;69.60
74657;DHT22;63185;45.642;13.764;2023-12-14T13:25:02;14.30;69.00
74657;DHT22;63185;45.642;13.764;2023-12-14T13:27:28;14.30;69.00
74657;DHT22;63185;45.642;13.764;2023-12-14T13:29:55;14.30;68.40
74657;DHT22;63185;45.642;13.764;2023-12-14T13:32:20;14.20;67.40
74657;DHT22;63185;45.642;13.764;2023-12-14T13:34:46;14.20;67.60
74657;DHT22;63185;45.642;13.764;2023-12-14T13:37:11;14.20;67.00
74657;DHT22;63185;45.642;13.764;2023-12-14T13:39:37;14.20;67.90
74657;DHT22;63185;45.642;13.764;2023-12-14T13:42:06;14.20;68.60
74657;DHT22;63185;45.642;13.764;2023-12-14T13:44:33;14.20;69.20
74657;DHT22;63185;45.642;13.764;2023-12-14T13:47:01;14.20;69.60
74657;DHT22;63185;45.642;13.764;2023-12-14T13:49:27;14.10;69.80
74657;DHT22;63185;45.642;13.764;2023-12-14T13:51:52;14.10;69.90
74657;DHT22;63185;45.642;13.764;2023-12-14T13:54:18;14.10;69.90
74657;DHT22;63185;45.642;13.764;2023-12-14T13:56:44;14.10;70.10
74657;DHT22;63185;45.642;13.764;2023-12-14T13:59:09;14.20;70.10
74657;DHT22;63185;45.642;13.764;2023-12-14T14:01:35;14.10;69.80
74657;DHT22;63185;45.642;13.764;2023-12-14T14:04:04;14.20;70.00
74657;DHT22;63185;45.642;13.764;2023-12-14T14:06:29;14.20;70.60
74657;DHT22;63185;45.642;13.764;2023-12-14T14:08:56;14.10;71.10
74657;DHT22;63185;45.642;13.764;2023-12-14T14:11:22;14.20;71.10
74657;DHT22;63185;45.642;13.764;2023-12-14T14:13:48;14.20;71.50
74657;DHT22;63185;45.642;13.764;2023-12-14T14:16:14;14.20;71.60
74657;DHT22;63185;45.642;13.764;2023-12-14T14:18:39;14.20;71.90
74657;DHT22;63185;45.642;13.764;2023-12-14T14:21:05;14.10;72.10
74657;DHT22;63185;45.642;13.764;2023-12-14T14:23:34;14.10;72.20
74657;DHT22;63185;45.642;13.764;2023-12-14T14:26:00;14.10;72.20
74657;DHT22;63185;45.642;13.764;2023-12-14T14:28:26;14.10;72.00
74657;DHT22;63185;45.642;13.764;2023-12-14T14:30:52;14.10;71.70
74657;DHT22;63185;45.642;13.764;2023-12-14T14:33:17;14.10;72.00
74657;DHT22;63185;45.642;13.764;2023-12-14T14:35:47;14.10;71.90
74657;DHT22;63185;45.642;13.764;2023-12-14T14:38:14;14.20;72.00
74657;DHT22;63185;45.642;13.764;2023-12-14T14:40:41;14.10;72.10
74657;DHT22;63185;45.642;13.764;2023-12-14T14:43:07;14.10;72.50
74657;DHT22;63185;45.642;13.764;2023-12-14T14:45:33;14.10;72.90
74657;DHT22;63185;45.642;13.764;2023-12-14T14:47:59;14.20;72.80
74657;DHT22;63185;45.642;13.764;2023-12-14T14:50:25;14.60;72.30
74657;DHT22;63185;45.642;13.764;2023-12-14T14:52:50;14.80;71.00
74657;DHT22;63185;45.642;13.764;2023-12-14T14:55:16;15.00;70.10
74657;DHT22;63185;45.642;13.764;2023-12-14T14:57:41;15.00;69.70
74657;DHT22;63185;45.642;13.764;2023-12-14T15:00:08;14.80;70.00
74657;DHT22;63185;45.642;13.764;2023-12-14T15:02:34;14.60;70.50
74657;DHT22;63185;45.642;13.764;2023-12-14T15:05:00;14.50;71.10
74657;DHT22;63185;45.642;13.764;2023-12-14T15:07:26;14.40;71.40
74657;DHT22;63185;45.642;13.764;2023-12-14T15:09:52;14.50;71.30
74657;DHT22;63185;45.642;13.764;2023-12-14T15:12:17;14.50;71.00
74657;DHT22;63185;45.642;13.764;2023-12-14T15:14:43;14.40;71.00
74657;DHT22;63185;45.642;13.764;2023-12-14T15:17:09;14.30;71.30
74657;DHT22;63185;45.642;13.764;2023-12-14T15:19:35;14.10;71.90
74657;DHT22;63185;45.642;13.764;2023-12-14T15:22:01;14.00;71.70